createdAt,value
2023-01-30T00:00:13.266Z,5.88
2023-01-30T00:01:20.721Z,6.60
2023-01-30T00:02:23.215Z,5.80
2023-01-30T00:03:25.644Z,5.25
2023-01-30T00:04:27.970Z,5.63
2023-01-30T00:05:30.366Z,5.95
2023-01-30T00:06:33.308Z,6.03
2023-01-30T00:07:35.578Z,5.13
2023-01-30T00:08:37.908Z,5.63
2023-01-30T00:09:41.078Z,5.72
2023-01-30T00:10:44.226Z,5.93
2023-01-30T00:11:46.762Z,5.78
2023-01-30T00:12:49.170Z,5.90
2023-01-30T00:13:51.888Z,5.85
2023-01-30T00:14:54.170Z,5.70
2023-01-30T00:15:56.535Z,5.57
2023-01-30T00:16:59.120Z,6.05
2023-01-30T00:18:01.403Z,6.25
2023-01-30T00:19:03.839Z,5.72
2023-01-30T00:20:06.411Z,5.40
2023-01-30T00:21:11.657Z,5.88
2023-01-30T00:22:14.003Z,5.35
2023-01-30T00:23:16.270Z,5.70
2023-01-30T00:24:18.612Z,5.70
2023-01-30T00:25:21.158Z,6.55
2023-01-30T00:26:23.665Z,5.57
2023-01-30T00:27:25.928Z,5.47
2023-01-30T00:28:28.402Z,5.88
2023-01-30T00:29:30.726Z,5.95
2023-01-30T00:30:33.228Z,5.75
2023-01-30T00:31:35.689Z,6.15
2023-01-30T00:32:38.223Z,5.90
2023-01-30T00:33:40.628Z,5.60
2023-01-30T00:34:42.990Z,5.97
2023-01-30T00:35:48.456Z,6.07
2023-01-30T00:36:58.949Z,5.63
2023-01-30T00:38:10.252Z,5.28
2023-01-30T00:39:12.573Z,5.55
2023-01-30T00:40:15.033Z,5.68
2023-01-30T00:41:19.163Z,5.53
2023-01-30T00:42:44.440Z,6.10
2023-01-30T00:44:05.468Z,6.03
2023-01-30T00:45:29.859Z,6.20
2023-01-30T00:46:52.853Z,5.95
2023-01-30T00:47:55.261Z,5.50
2023-01-30T00:48:57.597Z,5.55
2023-01-30T00:49:59.882Z,6.43
2023-01-30T00:51:02.464Z,6.15
2023-01-30T00:52:05.937Z,6.30
2023-01-30T00:53:13.043Z,6.05
2023-01-30T00:54:16.655Z,6.00
2023-01-30T00:55:19.255Z,5.72
2023-01-30T00:56:21.847Z,6.53
2023-01-30T00:57:24.149Z,6.60
2023-01-30T00:58:26.795Z,5.68
2023-01-30T00:59:29.423Z,5.65
2023-01-30T01:00:32.773Z,5.80
2023-01-30T01:01:35.172Z,6.13
2023-01-30T01:02:37.663Z,6.32
2023-01-30T01:03:39.995Z,5.78
2023-01-30T01:04:45.022Z,6.35
2023-01-30T01:05:47.424Z,6.85
2023-01-30T01:06:49.905Z,5.63
2023-01-30T01:07:52.494Z,5.95
2023-01-30T01:08:54.909Z,6.35
2023-01-30T01:09:57.260Z,6.72
2023-01-30T01:11:00.106Z,5.88
2023-01-30T01:12:02.564Z,6.35
2023-01-30T01:13:06.805Z,6.35
2023-01-30T01:14:09.246Z,6.25
2023-01-30T01:15:12.991Z,5.70
2023-01-30T01:16:15.354Z,6.70
2023-01-30T01:17:17.681Z,6.20
2023-01-30T01:18:20.039Z,6.25
2023-01-30T01:19:22.762Z,6.15
2023-01-30T01:20:25.303Z,6.18
2023-01-30T01:21:27.755Z,6.35
2023-01-30T01:22:30.109Z,5.78
2023-01-30T01:23:32.427Z,6.40
2023-01-30T01:24:34.839Z,5.88
2023-01-30T01:25:37.175Z,6.32
2023-01-30T01:26:42.141Z,6.57
2023-01-30T01:27:46.991Z,6.32
2023-01-30T01:28:59.059Z,6.10
2023-01-30T01:30:02.506Z,5.60
2023-01-30T01:31:11.890Z,6.03
2023-01-30T01:32:14.368Z,6.25
2023-01-30T01:33:16.765Z,5.93
2023-01-30T01:34:19.074Z,5.90
2023-01-30T01:35:21.394Z,6.13
2023-01-30T01:36:51.721Z,6.68
2023-01-30T01:37:46.726Z,5.72
2023-01-30T01:38:49.248Z,6.70
2023-01-30T01:40:10.420Z,6.50
2023-01-30T01:41:14.468Z,5.35
2023-01-30T01:42:17.578Z,5.50
2023-01-30T01:43:24.760Z,5.20
2023-01-30T01:44:27.134Z,5.30
2023-01-30T01:45:30.074Z,6.10
2023-01-30T01:46:50.085Z,6.28
2023-01-30T01:48:00.473Z,6.18
2023-01-30T01:49:07.838Z,6.50
2023-01-30T01:50:20.959Z,5.35
2023-01-30T01:51:34.720Z,6.10
2023-01-30T01:52:37.052Z,6.13
2023-01-30T01:53:57.925Z,6.32
2023-01-30T01:55:04.264Z,5.95
2023-01-30T01:56:07.510Z,6.20
2023-01-30T01:57:18.084Z,5.45
2023-01-30T01:58:25.425Z,6.20
2023-01-30T01:59:34.749Z,6.30
2023-01-30T02:00:37.211Z,6.13
2023-01-30T02:01:40.567Z,5.70
2023-01-30T02:02:47.774Z,6.28
2023-01-30T02:03:56.925Z,4.68
2023-01-30T02:05:02.960Z,5.13
2023-01-30T02:06:07.074Z,5.57
2023-01-30T02:07:10.055Z,5.70
2023-01-30T02:08:21.367Z,5.05
2023-01-30T02:09:26.432Z,5.60
2023-01-30T02:10:48.457Z,5.50
2023-01-30T02:11:56.999Z,5.28
2023-01-30T02:12:59.279Z,5.72
2023-01-30T02:14:02.984Z,5.70
2023-01-30T02:15:05.898Z,5.88
2023-01-30T02:16:09.304Z,5.00
2023-01-30T02:17:12.955Z,5.47
2023-01-30T02:18:16.716Z,5.22
2023-01-30T02:19:54.854Z,5.80
2023-01-30T02:21:28.088Z,4.72
2023-01-30T02:22:57.733Z,5.03
2023-01-30T02:24:08.851Z,5.10
2023-01-30T02:25:44.664Z,5.43
2023-01-30T02:26:54.902Z,5.68
2023-01-30T02:28:13.588Z,4.97
2023-01-30T02:29:36.728Z,5.57
2023-01-30T02:30:59.971Z,4.90
2023-01-30T02:32:05.203Z,5.80
2023-01-30T02:33:23.692Z,5.32
2023-01-30T02:34:57.351Z,5.15
2023-01-30T02:36:11.241Z,5.25
2023-01-30T02:37:50.071Z,4.97
2023-01-30T02:39:08.738Z,5.63
2023-01-30T02:40:16.606Z,5.45
2023-01-30T02:42:00.146Z,5.30
2023-01-30T02:43:41.071Z,5.22
2023-01-30T02:45:21.118Z,5.10
2023-01-30T02:46:55.091Z,4.78
2023-01-30T02:48:03.079Z,5.95
2023-01-30T02:49:15.101Z,4.95
2023-01-30T02:50:25.395Z,5.10
2023-01-30T02:51:31.657Z,5.30
2023-01-30T02:52:35.099Z,5.00
2023-01-30T02:53:38.000Z,4.68
2023-01-30T02:54:40.915Z,5.00
2023-01-30T02:55:44.340Z,5.03
2023-01-30T02:56:55.195Z,4.78
2023-01-30T02:57:58.705Z,5.13
2023-01-30T02:59:08.822Z,4.75
2023-01-30T03:00:12.702Z,5.32
2023-01-30T03:01:32.493Z,4.93
2023-01-30T03:03:09.833Z,4.43
2023-01-30T03:04:33.356Z,5.03
2023-01-30T03:05:55.099Z,5.40
2023-01-30T03:07:23.040Z,4.95
2023-01-30T03:08:41.525Z,4.53
2023-01-30T03:09:55.807Z,4.95
2023-01-30T03:11:05.574Z,5.10
2023-01-30T03:12:31.756Z,4.30
2023-01-30T03:13:58.943Z,4.65
2023-01-30T03:15:32.604Z,4.93
2023-01-30T03:16:38.815Z,4.30
2023-01-30T03:17:45.203Z,4.60
2023-01-30T03:18:51.076Z,4.70
2023-01-30T03:19:54.870Z,4.70
2023-01-30T03:21:03.213Z,4.35
2023-01-30T03:22:05.514Z,5.25
2023-01-30T03:23:08.696Z,4.85
2023-01-30T03:24:12.984Z,4.97
2023-01-30T03:25:20.836Z,4.40
2023-01-30T03:26:29.464Z,4.72
2023-01-30T03:27:34.199Z,4.90
2023-01-30T03:28:37.367Z,4.78
2023-01-30T03:29:40.585Z,4.55
2023-01-30T03:30:42.972Z,4.20
2023-01-30T03:31:45.645Z,4.78
2023-01-30T03:32:48.084Z,4.72
2023-01-30T03:33:50.493Z,4.55
2023-01-30T03:34:53.082Z,4.32
2023-01-30T03:35:55.771Z,4.15
2023-01-30T03:36:59.534Z,4.43
2023-01-30T03:38:02.465Z,4.25
2023-01-30T03:39:05.487Z,4.30
2023-01-30T03:40:08.364Z,4.40
2023-01-30T03:41:10.947Z,4.20
2023-01-30T03:42:14.519Z,4.35
2023-01-30T03:43:17.002Z,4.43
2023-01-30T03:44:19.631Z,4.43
2023-01-30T03:45:21.972Z,4.60
2023-01-30T03:46:24.314Z,4.43
2023-01-30T03:47:27.103Z,4.50
2023-01-30T03:48:30.578Z,4.50
2023-01-30T03:49:32.892Z,4.47
2023-01-30T03:50:35.537Z,4.07
2023-01-30T03:51:38.085Z,4.75
2023-01-30T03:52:40.487Z,4.43
2023-01-30T03:53:46.576Z,4.03
2023-01-30T03:54:48.910Z,4.60
2023-01-30T03:55:51.337Z,11.60
2023-01-30T03:56:59.262Z,7.85
2023-01-30T03:58:01.626Z,8.85
2023-01-30T03:59:07.040Z,8.85
2023-01-30T04:00:16.540Z,9.00
2023-01-30T04:01:19.026Z,7.40
2023-01-30T04:02:23.409Z,7.20
2023-01-30T04:03:26.647Z,6.65
2023-01-30T04:04:33.330Z,6.07
2023-01-30T04:05:36.699Z,5.57
2023-01-30T04:06:41.667Z,5.15
2023-01-30T04:07:44.019Z,5.38
2023-01-30T04:08:46.905Z,4.97
2023-01-30T04:10:01.740Z,5.07
2023-01-30T04:11:04.247Z,5.25
2023-01-30T04:12:07.119Z,4.78
2023-01-30T04:13:14.745Z,4.80
2023-01-30T04:14:17.423Z,4.50
2023-01-30T04:15:40.058Z,3.97
2023-01-30T04:17:11.328Z,4.88
2023-01-30T04:18:42.437Z,3.80
2023-01-30T04:19:48.407Z,3.90
2023-01-30T04:20:50.739Z,3.97
2023-01-30T04:21:58.393Z,4.28
2023-01-30T04:23:00.795Z,4.38
2023-01-30T04:24:03.537Z,3.67
2023-01-30T04:25:06.057Z,3.95
2023-01-30T04:26:08.766Z,3.75
2023-01-30T04:27:13.512Z,4.00
2023-01-30T04:28:29.853Z,3.63
2023-01-30T04:29:32.738Z,4.28
2023-01-30T04:30:37.780Z,3.60
2023-01-30T04:32:02.794Z,3.30
2023-01-30T04:33:09.214Z,4.15
2023-01-30T04:34:11.530Z,26.10
2023-01-30T04:35:13.862Z,44.65
2023-01-30T04:36:16.629Z,25.38
2023-01-30T04:37:20.376Z,20.83
2023-01-30T04:38:24.752Z,19.02
2023-01-30T04:39:27.474Z,14.13
2023-01-30T04:40:29.797Z,12.48
2023-01-30T04:41:32.522Z,10.45
2023-01-30T04:42:36.611Z,8.82
2023-01-30T04:44:01.559Z,7.82
2023-01-30T04:45:30.438Z,7.50
2023-01-30T04:46:32.817Z,7.03
2023-01-30T04:47:35.378Z,7.03
2023-01-30T04:48:37.832Z,6.85
2023-01-30T04:49:40.182Z,6.15
2023-01-30T04:50:44.736Z,6.30
2023-01-30T04:51:47.880Z,5.70
2023-01-30T04:52:50.910Z,6.15
2023-01-30T04:53:53.389Z,6.20
2023-01-30T04:54:55.772Z,5.72
2023-01-30T04:55:58.146Z,5.80
2023-01-30T04:57:00.601Z,7.57
2023-01-30T04:58:03.257Z,12.38
2023-01-30T04:59:06.169Z,12.02
2023-01-30T05:00:13.947Z,13.65
2023-01-30T05:01:30.679Z,8.93
2023-01-30T05:02:33.887Z,7.97
2023-01-30T05:03:36.138Z,7.72
2023-01-30T05:04:38.646Z,6.43
2023-01-30T05:05:40.994Z,6.47
2023-01-30T05:06:44.409Z,5.88
2023-01-30T05:07:46.788Z,6.80
2023-01-30T05:08:53.209Z,5.88
2023-01-30T05:09:55.466Z,5.95
2023-01-30T05:10:58.369Z,6.47
2023-01-30T05:12:00.658Z,6.00
2023-01-30T05:13:06.664Z,6.00
2023-01-30T05:14:08.952Z,5.88
2023-01-30T05:15:12.234Z,6.35
2023-01-30T05:16:15.909Z,5.38
2023-01-30T05:17:18.252Z,6.15
2023-01-30T05:18:20.678Z,5.80
2023-01-30T05:19:23.051Z,5.50
2023-01-30T05:20:25.530Z,5.60
2023-01-30T05:21:28.640Z,5.70
2023-01-30T05:22:31.158Z,5.32
2023-01-30T05:23:33.641Z,5.40
2023-01-30T05:24:36.712Z,14.30
2023-01-30T05:25:39.005Z,15.60
2023-01-30T05:26:41.325Z,15.20
2023-01-30T05:27:43.630Z,11.70
2023-01-30T05:28:54.545Z,11.10
2023-01-30T05:29:56.852Z,8.68
2023-01-30T05:31:13.810Z,7.20
2023-01-30T05:32:17.912Z,8.13
2023-01-30T05:33:20.184Z,7.15
2023-01-30T05:34:22.619Z,6.65
2023-01-30T05:35:25.069Z,7.50
2023-01-30T05:36:27.365Z,6.93
2023-01-30T05:37:29.675Z,6.47
2023-01-30T05:38:32.037Z,6.20
2023-01-30T05:39:34.506Z,6.40
2023-01-30T05:40:36.855Z,7.22
2023-01-30T05:41:39.167Z,6.38
2023-01-30T05:42:41.483Z,6.40
2023-01-30T05:43:43.952Z,6.38
2023-01-30T05:44:46.540Z,5.88
2023-01-30T05:45:54.436Z,6.22
2023-01-30T05:46:57.023Z,6.30
2023-01-30T05:48:01.533Z,6.65
2023-01-30T05:49:04.274Z,6.28
2023-01-30T05:50:06.811Z,5.82
2023-01-30T05:51:20.538Z,5.53
2023-01-30T05:52:22.858Z,5.82
2023-01-30T05:53:28.355Z,5.72
2023-01-30T05:54:30.622Z,5.38
2023-01-30T05:55:33.081Z,5.32
2023-01-30T05:56:35.574Z,5.88
2023-01-30T05:57:37.848Z,5.93
2023-01-30T05:58:40.251Z,5.90
2023-01-30T05:59:42.586Z,5.45
2023-01-30T06:00:44.905Z,5.82
2023-01-30T06:01:47.289Z,5.80
2023-01-30T06:02:49.582Z,6.22
2023-01-30T06:03:52.669Z,5.80
2023-01-30T06:04:54.985Z,6.05
2023-01-30T06:05:57.285Z,5.97
2023-01-30T06:06:59.681Z,5.68
2023-01-30T06:08:02.053Z,5.60
2023-01-30T06:09:04.712Z,5.18
2023-01-30T06:10:07.221Z,5.15
2023-01-30T06:11:12.917Z,5.82
2023-01-30T06:12:15.226Z,5.80
2023-01-30T06:13:17.760Z,5.55
2023-01-30T06:14:20.111Z,5.03
2023-01-30T06:15:22.494Z,5.80
2023-01-30T06:16:24.963Z,6.00
2023-01-30T06:17:29.732Z,5.88
2023-01-30T06:18:32.379Z,10.15
2023-01-30T06:19:34.657Z,9.52
2023-01-30T06:20:37.276Z,8.75
2023-01-30T06:21:39.544Z,7.72
2023-01-30T06:22:41.898Z,6.70
2023-01-30T06:23:44.462Z,7.03
2023-01-30T06:24:46.758Z,5.45
2023-01-30T06:25:50.188Z,6.22
2023-01-30T06:26:52.712Z,6.57
2023-01-30T06:27:55.038Z,5.25
2023-01-30T06:28:57.285Z,5.60
2023-01-30T06:29:59.541Z,6.03
2023-01-30T06:31:02.069Z,5.18
2023-01-30T06:32:04.731Z,6.03
2023-01-30T06:33:07.681Z,6.30
2023-01-30T06:34:11.771Z,6.68
2023-01-30T06:35:14.267Z,6.25
2023-01-30T06:36:16.623Z,6.20
2023-01-30T06:37:19.042Z,5.40
2023-01-30T06:38:21.411Z,5.68
2023-01-30T06:39:23.748Z,6.00
2023-01-30T06:40:26.187Z,5.22
2023-01-30T06:41:28.559Z,5.28
2023-01-30T06:42:30.861Z,5.47
2023-01-30T06:43:33.148Z,6.00
2023-01-30T06:44:35.594Z,5.85
2023-01-30T06:45:37.856Z,5.35
2023-01-30T06:46:40.119Z,5.50
2023-01-30T06:48:00.349Z,5.32
2023-01-30T06:49:02.636Z,5.45
2023-01-30T06:50:05.237Z,5.47
2023-01-30T06:51:07.480Z,5.55
2023-01-30T06:52:10.060Z,6.40
2023-01-30T06:53:12.432Z,4.90
2023-01-30T06:54:14.798Z,5.25
2023-01-30T06:55:19.978Z,4.85
2023-01-30T06:56:22.609Z,5.90
2023-01-30T06:57:24.907Z,4.88
2023-01-30T06:58:27.536Z,5.30
2023-01-30T06:59:29.830Z,5.85
2023-01-30T07:00:32.927Z,5.25
2023-01-30T07:01:35.500Z,5.47
2023-01-30T07:02:37.992Z,4.80
2023-01-30T07:03:40.503Z,5.32
2023-01-30T07:04:42.824Z,5.25
2023-01-30T07:05:46.756Z,5.05
2023-01-30T07:06:49.939Z,4.90
2023-01-30T07:07:52.383Z,55.05
2023-01-30T07:08:58.357Z,15.05
2023-01-30T07:10:07.959Z,14.63
2023-01-30T07:11:11.146Z,12.45
2023-01-30T07:12:13.511Z,12.18
2023-01-30T07:13:17.004Z,11.27
2023-01-30T07:14:19.385Z,10.52
2023-01-30T07:15:21.675Z,7.93
2023-01-30T07:16:29.116Z,7.90
2023-01-30T07:17:31.535Z,7.88
2023-01-30T07:18:33.860Z,7.75
2023-01-30T07:19:36.128Z,6.90
2023-01-30T07:20:38.681Z,7.35
2023-01-30T07:21:40.990Z,7.22
2023-01-30T07:22:48.586Z,6.95
2023-01-30T07:23:50.947Z,7.05
2023-01-30T07:24:53.214Z,6.95
2023-01-30T07:25:55.543Z,7.38
2023-01-30T07:26:57.807Z,7.32
2023-01-30T07:28:01.838Z,6.80
2023-01-30T07:29:04.175Z,6.65
2023-01-30T07:30:07.254Z,7.45
2023-01-30T07:31:09.517Z,7.03
2023-01-30T07:32:16.921Z,6.53
2023-01-30T07:33:20.051Z,6.18
2023-01-30T07:34:22.349Z,6.30
2023-01-30T07:35:26.185Z,7.00
2023-01-30T07:36:28.444Z,6.78
2023-01-30T07:37:30.743Z,6.43
2023-01-30T07:38:33.185Z,6.72
2023-01-30T07:39:36.035Z,6.60
2023-01-30T07:40:38.392Z,6.35
2023-01-30T07:41:41.198Z,6.45
2023-01-30T07:43:00.116Z,6.30
2023-01-30T07:44:02.846Z,6.78
2023-01-30T07:45:05.605Z,6.40
2023-01-30T07:46:07.908Z,6.30
2023-01-30T07:47:10.274Z,6.05
2023-01-30T07:48:16.052Z,6.43
2023-01-30T07:49:18.448Z,6.07
2023-01-30T07:50:20.965Z,6.40
2023-01-30T07:51:23.465Z,6.32
2023-01-30T07:52:25.747Z,6.07
2023-01-30T07:53:27.991Z,6.18
2023-01-30T07:54:30.305Z,6.18
2023-01-30T07:55:33.524Z,6.80
2023-01-30T07:56:35.939Z,37.28
2023-01-30T07:57:38.236Z,23.70
2023-01-30T07:58:40.491Z,23.92
2023-01-30T07:59:42.938Z,18.67
2023-01-30T08:00:45.345Z,16.63
2023-01-30T08:01:47.732Z,13.90
2023-01-30T08:02:50.117Z,13.45
2023-01-30T08:03:52.404Z,11.50
2023-01-30T08:04:54.724Z,10.68
2023-01-30T08:05:57.087Z,9.48
2023-01-30T08:06:59.384Z,8.90
2023-01-30T08:08:01.678Z,10.15
2023-01-30T08:09:03.976Z,10.43
2023-01-30T08:10:06.970Z,9.98
2023-01-30T08:11:09.803Z,10.02
2023-01-30T08:12:12.106Z,10.13
2023-01-30T08:13:14.469Z,9.68
2023-01-30T08:14:16.976Z,9.55
2023-01-30T08:15:21.221Z,10.20
2023-01-30T08:16:24.872Z,10.20
2023-01-30T08:17:27.245Z,9.35
2023-01-30T08:18:30.764Z,9.50
2023-01-30T08:19:33.288Z,9.18
2023-01-30T08:20:36.418Z,9.35
2023-01-30T08:21:38.651Z,9.40
2023-01-30T08:22:40.891Z,9.88
2023-01-30T08:23:43.150Z,6.13
2023-01-30T08:24:45.524Z,7.28
2023-01-30T08:25:47.794Z,7.60
2023-01-30T08:26:50.309Z,7.85
2023-01-30T08:27:52.934Z,8.95
2023-01-30T08:28:55.945Z,8.77
2023-01-30T08:29:58.354Z,8.23
2023-01-30T08:31:00.941Z,8.57
2023-01-30T08:32:03.403Z,7.82
2023-01-30T08:33:05.757Z,7.55
2023-01-30T08:34:08.070Z,6.90
2023-01-30T08:35:11.057Z,6.60
2023-01-30T08:36:13.587Z,6.40
2023-01-30T08:37:16.105Z,6.03
2023-01-30T08:38:18.442Z,5.80
2023-01-30T08:39:20.748Z,5.50
2023-01-30T08:40:23.027Z,4.93
2023-01-30T08:41:27.416Z,5.28
2023-01-30T08:42:29.708Z,5.47
2023-01-30T08:43:32.028Z,5.10
2023-01-30T08:44:34.317Z,6.18
2023-01-30T08:45:36.983Z,5.28
2023-01-30T08:46:39.634Z,5.03
2023-01-30T08:47:42.293Z,5.25
2023-01-30T08:48:49.796Z,4.90
2023-01-30T08:49:53.069Z,84.15
2023-01-30T08:50:56.358Z,40.03
2023-01-30T08:51:59.085Z,45.55
2023-01-30T08:53:09.932Z,44.55
2023-01-30T08:54:12.716Z,44.83
2023-01-30T08:55:15.083Z,43.35
2023-01-30T08:56:17.437Z,37.22
2023-01-30T08:57:19.776Z,34.53
2023-01-30T08:58:22.671Z,26.17
2023-01-30T08:59:24.948Z,23.13
2023-01-30T09:00:28.291Z,22.05
2023-01-30T09:01:30.631Z,23.33
2023-01-30T09:02:33.012Z,20.50
2023-01-30T09:03:35.737Z,23.38
2023-01-30T09:04:38.082Z,23.42
2023-01-30T09:05:40.452Z,23.02
2023-01-30T09:06:42.868Z,24.52
2023-01-30T09:07:45.253Z,25.27
2023-01-30T09:08:47.797Z,26.50
2023-01-30T09:09:50.379Z,26.42
2023-01-30T09:10:52.862Z,25.23
2023-01-30T09:11:55.233Z,26.60
2023-01-30T09:12:57.571Z,25.48
2023-01-30T09:13:59.901Z,25.58
2023-01-30T09:15:02.185Z,24.95
2023-01-30T09:16:06.624Z,24.20
2023-01-30T09:17:09.073Z,25.25
2023-01-30T09:18:11.545Z,24.70
2023-01-30T09:19:14.198Z,22.25
2023-01-30T09:20:18.837Z,22.90
2023-01-30T09:21:22.075Z,23.60
2023-01-30T09:22:27.076Z,22.80
2023-01-30T09:23:29.394Z,21.63
2023-01-30T09:24:31.794Z,21.67
2023-01-30T09:25:34.107Z,21.95
2023-01-30T09:26:36.463Z,22.27
2023-01-30T09:27:38.745Z,22.45
2023-01-30T09:28:41.207Z,21.67
2023-01-30T09:29:45.252Z,21.63
2023-01-30T09:30:48.017Z,22.73
2023-01-30T09:31:50.369Z,20.60
2023-01-30T09:32:52.659Z,20.52
2023-01-30T09:33:55.004Z,21.63
2023-01-30T09:34:57.381Z,21.27
2023-01-30T09:35:59.820Z,21.50
2023-01-30T09:37:04.878Z,21.30
2023-01-30T09:38:07.498Z,20.40
2023-01-30T09:39:10.093Z,20.88
2023-01-30T09:40:17.360Z,20.50
2023-01-30T09:41:58.769Z,19.42
2023-01-30T09:43:39.239Z,20.88
2023-01-30T09:45:02.462Z,18.13
2023-01-30T09:46:05.036Z,19.33
2023-01-30T09:47:20.146Z,19.08
2023-01-30T09:48:43.880Z,18.92
2023-01-30T09:50:10.569Z,20.73
2023-01-30T09:51:25.799Z,22.00
2023-01-30T09:53:03.433Z,18.70
2023-01-30T09:54:24.450Z,19.90
2023-01-30T09:55:29.739Z,17.42
2023-01-30T09:56:32.186Z,19.05
2023-01-30T09:57:36.170Z,23.20
2023-01-30T09:58:44.346Z,19.33
2023-01-30T10:00:26.954Z,18.40
2023-01-30T10:02:04.158Z,17.83
2023-01-30T10:03:18.983Z,17.67
2023-01-30T10:04:31.667Z,17.60
2023-01-30T10:05:48.275Z,17.08
2023-01-30T10:07:20.940Z,17.17
2023-01-30T10:08:51.318Z,17.35
2023-01-30T10:09:56.568Z,17.20
2023-01-30T10:11:14.211Z,18.30
2023-01-30T10:12:16.398Z,17.17
2023-01-30T10:13:52.164Z,16.88
2023-01-30T10:14:57.592Z,17.38
2023-01-30T10:16:02.888Z,17.48
2023-01-30T10:17:32.877Z,17.45
2023-01-30T10:18:54.156Z,17.02
2023-01-30T10:20:11.474Z,16.23
2023-01-30T10:21:30.998Z,17.00
2023-01-30T10:22:33.262Z,16.73
2023-01-30T10:23:47.542Z,16.75
2023-01-30T10:25:07.837Z,15.93
2023-01-30T10:26:16.374Z,16.55
2023-01-30T10:27:20.436Z,15.88
2023-01-30T10:28:34.354Z,17.20
2023-01-30T10:29:39.828Z,13.27
2023-01-30T10:30:45.919Z,30.33
2023-01-30T10:31:57.027Z,18.20
2023-01-30T10:33:06.214Z,18.45
2023-01-30T10:34:29.191Z,17.50
2023-01-30T10:35:35.611Z,16.40
2023-01-30T10:37:09.830Z,16.00
2023-01-30T10:38:35.507Z,15.20
2023-01-30T10:40:00.530Z,15.43
2023-01-30T10:41:17.715Z,14.40
2023-01-30T10:42:29.157Z,16.48
2023-01-30T10:43:42.486Z,16.13
2023-01-30T10:44:44.990Z,15.43
2023-01-30T10:46:09.807Z,14.75
2023-01-30T10:47:47.939Z,16.10
2023-01-30T10:48:59.519Z,14.13
2023-01-30T10:51:23.668Z,14.15
2023-01-30T10:52:49.057Z,14.80
2023-01-30T10:54:28.704Z,14.88
2023-01-30T10:55:38.425Z,13.88
2023-01-30T10:57:12.089Z,15.82
2023-01-30T10:58:32.243Z,14.15
2023-01-30T11:00:05.340Z,14.80
2023-01-30T11:01:17.443Z,15.10
2023-01-30T11:02:51.806Z,14.88
2023-01-30T11:04:00.542Z,13.70
2023-01-30T11:05:25.530Z,14.48
2023-01-30T11:06:29.224Z,13.10
2023-01-30T11:07:33.415Z,12.85
2023-01-30T11:08:36.219Z,13.68
2023-01-30T11:09:43.971Z,13.18
2023-01-30T11:10:46.413Z,12.13
2023-01-30T11:11:53.410Z,13.68
2023-01-30T11:13:10.137Z,12.32
2023-01-30T11:14:12.896Z,12.75
2023-01-30T11:15:16.243Z,13.10
2023-01-30T11:16:18.805Z,12.77
2023-01-30T11:17:28.559Z,12.68
2023-01-30T11:19:56.623Z,13.73
2023-01-30T11:21:04.099Z,11.65
2023-01-30T11:22:06.724Z,11.30
2023-01-30T11:23:42.939Z,10.95
2023-01-30T11:24:45.955Z,19.92
2023-01-30T11:25:59.261Z,14.27
2023-01-30T11:27:30.101Z,25.85
2023-01-30T11:28:50.721Z,22.30
2023-01-30T11:30:10.238Z,18.77
2023-01-30T11:31:40.870Z,14.73
2023-01-30T11:32:46.316Z,13.98
2023-01-30T11:34:01.935Z,14.20
2023-01-30T11:35:07.068Z,12.40
2023-01-30T11:36:30.653Z,12.32
2023-01-30T11:37:35.624Z,12.82
2023-01-30T11:38:56.759Z,12.65
2023-01-30T11:39:59.434Z,13.40
2023-01-30T11:41:21.632Z,12.65
2023-01-30T11:42:31.591Z,12.15
2023-01-30T11:43:37.024Z,12.18
2023-01-30T11:44:42.396Z,12.95
2023-01-30T11:45:48.556Z,12.05
2023-01-30T11:46:50.940Z,11.93
2023-01-30T11:47:58.782Z,13.18
2023-01-30T11:49:47.057Z,14.50
2023-01-30T11:50:41.956Z,12.93
2023-01-30T11:51:48.865Z,11.90
2023-01-30T11:52:51.166Z,12.50
2023-01-30T11:53:59.669Z,11.77
2023-01-30T11:55:07.628Z,12.07
2023-01-30T11:56:20.931Z,12.82
2023-01-30T11:57:23.295Z,12.40
2023-01-30T11:58:34.069Z,11.82
2023-01-30T11:59:44.637Z,12.00
2023-01-30T12:00:49.361Z,11.68
2023-01-30T12:01:52.824Z,11.45
2023-01-30T12:03:01.935Z,12.10
2023-01-30T12:04:08.976Z,11.55
2023-01-30T12:05:34.451Z,11.73
2023-01-30T12:06:39.468Z,10.68
2023-01-30T12:07:44.126Z,11.43
2023-01-30T12:08:46.364Z,10.90
2023-01-30T12:09:50.389Z,11.43
2023-01-30T12:11:02.435Z,10.50
2023-01-30T12:12:33.377Z,9.57
2023-01-30T12:13:41.801Z,12.23
2023-01-30T12:14:49.213Z,14.00
2023-01-30T12:16:16.189Z,14.02
2023-01-30T12:17:30.040Z,12.23
2023-01-30T12:18:43.241Z,11.48
2023-01-30T12:19:56.995Z,10.93
2023-01-30T12:21:02.084Z,10.23
2023-01-30T12:22:20.465Z,10.98
2023-01-30T12:23:55.547Z,10.75
2023-01-30T12:24:59.847Z,10.95
2023-01-30T12:26:17.226Z,11.45
2023-01-30T12:27:54.934Z,11.60
2023-01-30T12:29:19.362Z,11.02
2023-01-30T12:30:27.769Z,10.70
2023-01-30T12:31:39.206Z,11.00
2023-01-30T12:33:43.706Z,10.25
2023-01-30T12:34:47.883Z,9.82
2023-01-30T12:36:00.800Z,9.98
2023-01-30T12:37:39.458Z,9.63
2023-01-30T12:39:14.008Z,10.80
2023-01-30T12:40:44.169Z,10.00
2023-01-30T12:43:47.286Z,10.30
2023-01-30T12:46:09.319Z,9.27
2023-01-30T12:47:26.501Z,9.45
2023-01-30T12:49:12.002Z,9.25
2023-01-30T12:50:26.095Z,9.35
2023-01-30T12:51:57.966Z,9.98
2023-01-30T12:54:46.705Z,9.23
2023-01-30T12:56:14.098Z,9.27
2023-01-30T12:57:24.937Z,9.15
2023-01-30T12:58:45.879Z,9.27
2023-01-30T13:00:02.118Z,10.20
2023-01-30T13:01:29.406Z,9.13
2023-01-30T13:03:06.690Z,8.93
2023-01-30T13:04:56.539Z,8.50
2023-01-30T13:06:07.392Z,9.18
2023-01-30T13:07:42.404Z,9.52
2023-01-30T13:09:05.025Z,8.80
2023-01-30T13:10:27.011Z,8.93
2023-01-30T13:11:35.114Z,9.25
2023-01-30T13:12:37.387Z,8.40
2023-01-30T13:13:46.711Z,9.15
2023-01-30T13:15:03.599Z,9.02
2023-01-30T13:16:18.871Z,8.00
2023-01-30T13:17:42.137Z,8.70
2023-01-30T13:18:49.791Z,8.43
2023-01-30T13:19:59.398Z,9.30
2023-01-30T13:21:18.615Z,9.07
2023-01-30T13:22:43.244Z,8.02
2023-01-30T13:24:06.563Z,8.30
2023-01-30T13:25:27.012Z,9.07
2023-01-30T13:26:35.769Z,8.68
2023-01-30T13:27:43.358Z,7.53
2023-01-30T13:28:53.077Z,8.43
2023-01-30T13:29:55.898Z,8.85
2023-01-30T13:30:59.385Z,9.02
2023-01-30T13:32:05.683Z,8.35
2023-01-30T13:33:20.994Z,8.18
2023-01-30T13:34:38.607Z,8.90
2023-01-30T13:35:56.397Z,8.55
2023-01-30T13:37:10.836Z,8.13
2023-01-30T13:38:19.614Z,7.95
2023-01-30T13:39:44.915Z,7.82
2023-01-30T13:40:51.209Z,8.70
2023-01-30T13:41:57.629Z,109.78
2023-01-30T13:43:04.429Z,54.45
2023-01-30T13:44:21.343Z,61.17
2023-01-30T13:45:31.783Z,48.63
2023-01-30T13:46:38.059Z,44.67
2023-01-30T13:47:55.750Z,43.45
2023-01-30T13:49:24.772Z,31.45
2023-01-30T13:51:03.345Z,28.58
2023-01-30T13:52:34.295Z,25.02
2023-01-30T13:53:54.295Z,29.13
2023-01-30T13:55:15.883Z,25.90
2023-01-30T13:57:56.266Z,25.13
2023-01-30T13:59:15.902Z,27.80
2023-01-30T14:00:31.505Z,27.60
2023-01-30T14:02:06.853Z,27.75
2023-01-30T14:03:09.099Z,25.23
2023-01-30T14:04:40.629Z,26.25
2023-01-30T14:05:52.201Z,25.60
2023-01-30T14:06:54.453Z,25.15
2023-01-30T14:07:56.800Z,25.95
2023-01-30T14:09:04.863Z,23.58
2023-01-30T14:10:09.983Z,24.63
2023-01-30T14:11:34.349Z,24.08
2023-01-30T14:12:40.282Z,15.27
2023-01-30T14:13:53.591Z,15.68
2023-01-30T14:15:14.411Z,13.70
2023-01-30T14:16:16.893Z,9.55
2023-01-30T14:17:19.564Z,8.88
2023-01-30T14:18:25.062Z,9.10
2023-01-30T14:19:58.416Z,9.35
2023-01-30T14:21:20.390Z,8.48
2023-01-30T14:22:33.898Z,8.00
2023-01-30T14:23:36.496Z,8.20
2023-01-30T14:24:38.760Z,8.35
2023-01-30T14:25:47.043Z,7.43
2023-01-30T14:26:52.324Z,7.32
2023-01-30T14:28:00.483Z,6.25
2023-01-30T14:29:02.864Z,5.85
2023-01-30T14:30:30.702Z,6.43
2023-01-30T14:31:48.763Z,7.07
2023-01-30T14:32:56.264Z,7.70
2023-01-30T14:33:58.521Z,8.20
2023-01-30T14:35:03.744Z,8.48
2023-01-30T14:36:06.173Z,8.43
2023-01-30T14:37:53.680Z,8.43
2023-01-30T14:39:47.890Z,9.00
2023-01-30T14:40:58.966Z,8.65
2023-01-30T14:42:20.925Z,7.70
2023-01-30T14:43:27.193Z,9.50
2023-01-30T14:45:02.430Z,8.68
2023-01-30T14:46:19.678Z,8.70
2023-01-30T14:47:33.952Z,8.82
2023-01-30T14:48:49.896Z,8.10
2023-01-30T14:49:52.496Z,8.40
2023-01-30T14:51:29.129Z,8.57
2023-01-30T14:52:39.534Z,8.75
2023-01-30T14:54:14.419Z,8.05
2023-01-30T14:55:21.228Z,9.25
2023-01-30T14:56:44.770Z,8.13
2023-01-30T14:58:18.445Z,9.07
2023-01-30T14:59:31.299Z,8.98
2023-01-30T15:00:38.142Z,8.23
2023-01-30T15:01:58.641Z,8.25
2023-01-30T15:03:05.679Z,8.73
2023-01-30T15:04:15.592Z,8.88
2023-01-30T15:05:43.472Z,7.97
2023-01-30T15:06:47.691Z,8.23
2023-01-30T15:07:56.413Z,8.75
2023-01-30T15:08:59.024Z,7.85
2023-01-30T15:10:13.147Z,7.75
2023-01-30T15:11:23.859Z,8.63
2023-01-30T15:12:47.118Z,8.98
2023-01-30T15:14:07.584Z,7.57